Tampa, Florida
Traffic Map
Current Weather Conditions
Tampa, Florida
Broken Clouds
Broken Clouds
31°
Feels Like: 35°
Wind Chill: 31° Ceiling: 27000
Heat Index: 35° Visibility: 10mi
Dew Point: 23° Wind: 8mph
Humidity: 61% Direction: 260° (W)
Pressure: 30.03in Gusts: 0mph
Raw Report DataKTPA 222053Z 26007KT 10SM FEW038TCU BKN270 31/23 A3003 RMK AO2 SLP169 T03110228 56011
Traffic Incident Summary
Active as of:
Severity:
Category:
InformationThere was an issue retrieving the traffic information for this location. Please try a different location or try again shortly.
Advertisements
Track Severe Weather on mobile